Time;durP1;ratioP1;P1;durP2;ratioP2;P2;SDS_P1;SDS_P2;PMS_P1;PMS_P2;Temp;Humidity;BMP_temperature;BMP_pressure;BME280_temperature;BME280_humidity;BME280_pressure;Samples;Min_cycle;Max_cycle;Signal;HPM_P1;HPM_P2
2022/07/27 00:05:54;;;;;;;2.90;2.33;;;28.50;43.00;;;;;;5015837;28;20437;-80
2022/07/27 00:08:28;;;;;;;3.10;2.80;;;28.50;43.10;;;;;;5000882;28;20439;-81
2022/07/27 00:10:59;;;;;;;2.37;2.17;;;28.50;43.10;;;;;;5055522;28;20424;-80
2022/07/27 00:13:40;;;;;;;2.70;2.50;;;28.50;43.10;;;;;;5058816;28;20532;-81
2022/07/27 00:16:13;;;;;;;2.93;2.73;;;28.50;43.10;;;;;;5074855;28;20498;-80
2022/07/27 00:18:48;;;;;;;3.27;2.97;;;28.50;43.20;;;;;;4997497;28;20435;-81
2022/07/27 00:21:17;;;;;;;2.97;2.67;;;28.50;43.20;;;;;;5035090;28;20433;-81
2022/07/27 00:23:47;;;;;;;3.00;2.63;;;28.50;43.20;;;;;;5020304;28;20436;-81
2022/07/27 00:26:17;;;;;;;3.43;3.13;;;28.60;43.30;;;;;;5015366;28;20499;-81
2022/07/27 00:28:52;;;;;;;3.17;2.63;;;28.60;43.30;;;;;;4998822;28;20497;-81
2022/07/27 00:31:20;;;;;;;2.60;2.40;;;28.60;43.30;;;;;;5001055;28;20497;-81
2022/07/27 00:34:02;;;;;;;4.73;2.67;;;28.50;43.20;;;;;;4992182;28;20446;-81
2022/07/27 00:36:33;;;;;;;3.53;2.70;;;28.50;43.30;;;;;;4940742;29;20435;-81
2022/07/27 00:39:23;;;;;;;3.17;2.97;;;28.60;43.30;;;;;;4968919;29;20441;-80
2022/07/27 00:41:49;;;;;;;3.23;2.93;;;28.60;43.30;;;;;;4975991;29;20433;-81
2022/07/27 00:44:51;;;;;;;2.90;2.70;;;28.50;43.40;;;;;;4977030;28;20408;-81
2022/07/27 00:47:39;;;;;;;2.87;2.60;;;28.60;43.40;;;;;;4959624;29;20457;-81
2022/07/27 00:50:39;;;;;;;3.23;2.93;;;28.50;43.40;;;;;;5014336;28;20436;-81
2022/07/27 00:53:12;;;;;;;3.73;3.17;;;28.50;43.40;;;;;;5015819;28;20406;-81
2022/07/27 00:55:48;;;;;;;2.90;2.70;;;28.50;43.40;;;;;;5021938;28;20407;-81
2022/07/27 00:58:17;;;;;;;3.13;2.87;;;28.50;43.40;;;;;;5016316;28;20458;-82
2022/07/27 01:01:09;;;;;;;3.10;2.80;;;28.50;43.40;;;;;;5033286;28;20747;-81
2022/07/27 01:07:17;;;;;;;2.53;2.33;;;28.50;43.40;;;;;;5068192;28;20491;-81
2022/07/27 01:09:58;;;;;;;3.43;2.50;;;28.40;43.40;;;;;;5078264;28;20480;-81
2022/07/27 01:12:33;;;;;;;6.33;2.37;;;28.40;43.40;;;;;;5096086;28;20483;-81
2022/07/27 01:15:12;;;;;;;2.87;2.63;;;28.40;43.50;;;;;;5083800;28;20490;-81
2022/07/27 01:18:26;;;;;;;4.40;2.77;;;28.40;43.50;;;;;;5099294;28;20462;-80
2022/07/27 01:20:57;;;;;;;2.50;2.30;;;28.40;43.50;;;;;;5095587;28;20457;-80
2022/07/27 01:23:31;;;;;;;3.37;2.63;;;28.40;43.60;;;;;;5102506;28;20425;-79
2022/07/27 01:26:03;;;;;;;3.00;2.43;;;28.40;43.60;;;;;;5102974;28;20447;-80
2022/07/27 01:28:55;;;;;;;2.67;2.47;;;28.40;43.60;;;;;;5085403;28;20415;-80
2022/07/27 01:31:34;;;;;;;3.83;2.77;;;28.40;43.60;;;;;;5105329;28;20449;-80
2022/07/27 01:34:07;;;;;;;2.67;2.47;;;28.40;43.60;;;;;;5119665;28;20403;-81
2022/07/27 01:37:15;;;;;;;2.77;2.57;;;28.40;43.60;;;;;;5098877;28;20449;-81
2022/07/27 01:39:56;;;;;;;2.90;2.60;;;28.40;43.70;;;;;;5080025;28;20412;-81
2022/07/27 01:42:26;;;;;;;3.07;2.87;;;28.40;43.70;;;;;;5077831;28;20417;-82
2022/07/27 01:44:59;;;;;;;2.77;2.57;;;28.40;43.70;;;;;;5064391;28;20424;-81
2022/07/27 01:47:50;;;;;;;3.63;2.40;;;28.40;44.40;;;;;;5030376;28;20461;-81
2022/07/27 01:50:30;;;;;;;3.17;2.87;;;28.40;43.70;;;;;;5041602;28;20419;-81
2022/07/27 01:53:06;;;;;;;2.60;2.40;;;28.40;43.70;;;;;;5058222;28;20418;-81
2022/07/27 01:55:46;;;;;;;2.37;2.17;;;28.30;43.70;;;;;;5042804;28;20819;-81
2022/07/27 02:01:24;;;;;;;2.57;2.37;;;28.30;43.80;;;;;;5053306;28;20428;-81
2022/07/27 02:04:05;;;;;;;2.83;2.60;;;28.30;43.80;;;;;;5039379;28;20418;-81
2022/07/27 02:06:35;;;;;;;2.90;2.43;;;28.30;43.80;;;;;;5023798;28;20450;-81
2022/07/27 02:09:06;;;;;;;2.80;2.60;;;28.30;43.80;;;;;;5057153;28;20441;-81
2022/07/27 02:14:24;;;;;;;2.63;2.20;;;28.30;43.90;;;;;;5057410;28;20417;-81
2022/07/27 02:16:51;;;;;;;2.73;2.00;;;28.30;43.90;;;;;;5020252;28;20411;-81
2022/07/27 02:19:18;;;;;;;2.43;2.20;;;28.30;43.90;;;;;;5034176;28;20434;-80
2022/07/27 02:21:52;;;;;;;2.73;2.43;;;28.30;43.90;;;;;;5040083;28;20411;-80
2022/07/27 02:24:42;;;;;;;5.23;2.47;;;28.30;43.90;;;;;;4972156;29;20431;-80
2022/07/27 02:27:31;;;;;;;2.67;2.47;;;28.30;44.00;;;;;;4958532;29;20547;-80
2022/07/27 02:30:27;;;;;;;2.33;2.13;;;28.30;44.00;;;;;;4959142;29;20411;-80
2022/07/27 02:36:31;;;;;;;2.40;2.20;;;28.30;44.00;;;;;;4958854;29;20539;-80
2022/07/27 02:42:24;;;;;;;1.90;1.80;;;28.30;44.20;;;;;;4959181;29;20414;-80
2022/07/27 02:45:03;;;;;;;3.30;2.43;;;28.30;44.20;;;;;;4959184;29;20457;-80
2022/07/27 02:47:30;;;;;;;2.60;2.40;;;28.20;44.20;;;;;;4942615;29;20472;-80
2022/07/27 02:50:13;;;;;;;2.50;2.30;;;28.30;44.30;;;;;;4958952;29;20403;-79
2022/07/27 02:52:51;;;;;;;2.73;2.37;;;28.30;44.30;;;;;;4957876;29;20408;-80
2022/07/27 02:55:33;;;;;;;2.13;1.93;;;28.30;44.40;;;;;;4960267;29;20453;-80
2022/07/27 02:58:50;;;;;;;3.67;2.40;;;28.30;44.40;;;;;;4973033;29;20402;-80
2022/07/27 03:01:41;;;;;;;2.30;2.07;;;28.30;44.50;;;;;;4977838;29;20413;-81
2022/07/27 03:04:20;;;;;;;2.40;2.20;;;28.30;44.60;;;;;;4963698;29;20397;-81
2022/07/27 03:10:08;;;;;;;2.70;1.80;;;28.20;44.60;;;;;;4976927;29;20366;-81
2022/07/27 03:12:35;;;;;;;2.87;2.63;;;28.20;44.80;;;;;;4977210;28;20438;-81
2022/07/27 03:15:07;;;;;;;2.80;2.60;;;28.30;44.90;;;;;;4983853;28;20463;-81
2022/07/27 03:17:34;;;;;;;2.30;2.10;;;28.20;44.90;;;;;;4995898;28;20428;-79
2022/07/27 03:20:05;;;;;;;2.00;1.80;;;28.20;45.00;;;;;;5014232;28;20750;-79
2022/07/27 03:22:36;;;;;;;2.40;2.13;;;28.30;45.00;;;;;;5037364;28;20433;-81
2022/07/27 03:28:16;;;;;;;3.33;2.13;;;28.20;45.10;;;;;;5078157;28;20412;-81
2022/07/27 03:31:03;;;;;;;1.97;1.77;;;28.20;45.20;;;;;;5092963;28;20417;-80
2022/07/27 03:33:34;;;;;;;2.30;2.10;;;28.20;45.30;;;;;;5076384;28;20422;-81
2022/07/27 03:36:13;;;;;;;2.47;2.27;;;28.20;45.30;;;;;;5093400;28;20389;-81
2022/07/27 03:39:06;;;;;;;2.30;2.10;;;28.20;45.40;;;;;;5077628;28;20444;-81
2022/07/27 03:41:59;;;;;;;3.30;2.00;;;28.20;46.00;;;;;;5077086;28;20441;-81
2022/07/27 03:44:32;;;;;;;2.17;1.97;;;28.20;45.40;;;;;;5059967;28;20418;-80
2022/07/27 03:47:04;;;;;;;2.17;1.97;;;28.20;45.50;;;;;;5076713;28;20479;-80
2022/07/27 03:49:51;;;;;;;3.63;2.33;;;28.20;45.50;;;;;;5076883;28;20396;-81
2022/07/27 03:52:36;;;;;;;2.37;2.17;;;28.20;45.50;;;;;;5060656;28;20410;-80
2022/07/27 03:55:20;;;;;;;2.13;1.93;;;28.20;45.50;;;;;;5074480;28;20430;-81
2022/07/27 03:57:51;;;;;;;2.03;1.83;;;28.20;45.60;;;;;;5055334;28;20423;-81
2022/07/27 04:00:18;;;;;;;3.03;2.10;;;28.20;45.60;;;;;;5058577;28;20393;-81
2022/07/27 04:02:45;;;;;;;4.03;2.00;;;28.20;45.60;;;;;;5097096;28;20423;-81
2022/07/27 04:05:16;;;;;;;2.10;1.90;;;28.20;45.60;;;;;;5079499;28;20520;-81
2022/07/27 04:07:47;;;;;;;2.20;2.00;;;28.20;45.60;;;;;;5096966;28;20456;-81
2022/07/27 04:10:18;;;;;;;2.00;1.90;;;28.30;45.70;;;;;;5079339;28;20403;-81
2022/07/27 04:19:35;;;;;;;3.40;2.00;;;28.20;45.80;;;;;;5099872;28;20473;-82
2022/07/27 04:22:43;;;;;;;2.20;2.00;;;28.10;45.80;;;;;;4992830;28;20426;-82
2022/07/27 04:25:13;;;;;;;2.30;2.10;;;28.20;45.90;;;;;;4986552;28;20425;-82
2022/07/27 04:28:10;;;;;;;2.97;2.67;;;28.20;45.90;;;;;;4969204;29;20469;-82
2022/07/27 04:31:32;;;;;;;2.80;2.30;;;28.20;45.90;;;;;;5002850;28;20425;-82
2022/07/27 04:34:02;;;;;;;2.10;1.90;;;28.20;46.00;;;;;;4978979;28;20421;-82
2022/07/27 04:36:36;;;;;;;3.23;2.10;;;28.20;46.00;;;;;;4961434;28;20464;-82
2022/07/27 04:39:05;;;;;;;2.80;2.43;;;28.20;46.20;;;;;;4982581;28;20413;-82
2022/07/27 04:41:35;;;;;;;2.83;2.07;;;28.20;46.20;;;;;;4980800;28;20498;-82
2022/07/27 04:44:03;;;;;;;2.77;2.30;;;28.20;46.10;;;;;;4987394;28;20498;-82
2022/07/27 04:46:47;;;;;;;2.70;2.00;;;28.20;46.10;;;;;;4976857;29;20461;-82
2022/07/27 04:52:30;;;;;;;2.40;2.20;;;28.20;46.20;;;;;;4984773;28;20419;-82
2022/07/27 04:55:03;;;;;;;8.60;2.20;;;28.20;46.30;;;;;;4980971;28;20426;-81
2022/07/27 04:57:43;;;;;;;3.13;2.57;;;28.20;46.30;;;;;;5025121;28;20438;-82
2022/07/27 05:00:13;;;;;;;2.70;2.30;;;28.20;46.40;;;;;;5002744;28;20468;-82
2022/07/27 05:02:45;;;;;;;2.33;2.10;;;28.20;46.40;;;;;;5000894;28;20412;-82
2022/07/27 05:05:19;;;;;;;2.07;1.97;;;28.20;46.40;;;;;;5026757;28;20419;-82
2022/07/27 05:08:07;;;;;;;1.90;1.80;;;28.20;46.40;;;;;;5016217;28;20451;-83
2022/07/27 05:11:23;;;;;;;4.00;2.20;;;28.20;46.30;;;;;;5019014;28;20428;-82
2022/07/27 05:14:03;;;;;;;2.37;2.10;;;28.20;46.40;;;;;;5076643;28;20417;-81
2022/07/27 05:16:44;;;;;;;2.70;1.83;;;28.20;46.40;;;;;;5097954;28;20472;-82
2022/07/27 05:19:38;;;;;;;4.53;2.03;;;28.20;46.40;;;;;;4986051;28;20419;-80
2022/07/27 05:22:09;;;;;;;2.67;2.47;;;28.20;47.00;;;;;;5039841;28;20885;-81
2022/07/27 05:31:27;;;;;;;1.93;1.80;;;28.20;46.50;;;;;;5103835;28;20483;-81
2022/07/27 05:38:03;;;;;;;1.97;1.87;;;28.20;46.60;;;;;;5014227;28;20407;-83
2022/07/27 05:40:32;;;;;;;2.33;2.13;;;28.20;46.60;;;;;;5012829;28;20436;-81
2022/07/27 05:43:22;;;;;;;2.37;2.17;;;28.20;46.60;;;;;;5016391;28;20499;-81
2022/07/27 05:46:04;;;;;;;1.97;1.77;;;28.20;46.50;;;;;;5003223;28;20432;-81
2022/07/27 05:55:51;;;;;;;2.17;2.00;;;28.10;46.50;;;;;;4960308;29;20390;-81
2022/07/27 05:58:37;;;;;;;2.47;2.10;;;28.10;46.60;;;;;;4914978;29;20427;-81
2022/07/27 06:01:13;;;;;;;4.83;2.00;;;28.10;46.70;;;;;;4919529;29;20432;-81
2022/07/27 06:05:05;;;;;;;2.13;1.93;;;28.10;46.60;;;;;;4958576;29;20422;-81
2022/07/27 06:07:58;;;;;;;2.87;2.50;;;28.20;46.60;;;;;;4954816;29;20466;-81
2022/07/27 06:17:06;;;;;;;2.37;2.17;;;28.10;46.70;;;;;;4956976;29;20399;-81
2022/07/27 06:20:11;;;;;;;2.80;2.07;;;28.10;46.70;;;;;;4989942;28;20508;-81
2022/07/27 06:23:09;;;;;;;3.00;2.23;;;28.10;46.70;;;;;;5003972;28;20424;-81
2022/07/27 06:25:41;;;;;;;2.07;1.93;;;28.10;46.70;;;;;;5055062;28;20392;-80
2022/07/27 06:28:12;;;;;;;2.10;1.90;;;28.10;46.70;;;;;;5061742;28;20468;-80
2022/07/27 06:30:42;;;;;;;3.10;2.10;;;28.10;46.70;;;;;;5064323;28;20462;-82
2022/07/27 06:33:38;;;;;;;2.07;1.87;;;28.10;46.80;;;;;;5081429;28;20401;-81
2022/07/27 06:39:39;;;;;;;2.50;2.00;;;28.10;46.70;;;;;;5095251;28;20368;-80
2022/07/27 06:42:09;;;;;;;2.17;1.97;;;28.10;46.80;;;;;;5096243;28;20397;-81
2022/07/27 06:44:51;;;;;;;2.40;2.20;;;28.10;46.80;;;;;;5092078;28;20424;-82
2022/07/27 06:47:21;;;;;;;1.97;1.87;;;28.10;46.70;;;;;;5096814;28;20480;-80
2022/07/27 06:50:43;;;;;;;4.37;2.60;;;28.10;46.80;;;;;;5092814;28;20416;-82
2022/07/27 06:53:29;;;;;;;3.23;1.93;;;28.10;46.80;;;;;;5074085;28;20468;-81
2022/07/27 06:58:59;;;;;;;2.30;1.97;;;28.10;46.90;;;;;;5083384;28;20719;-81
2022/07/27 07:01:29;;;;;;;2.43;1.83;;;28.10;46.80;;;;;;5096027;28;20436;-81
2022/07/27 07:04:02;;;;;;;3.03;2.10;;;28.10;46.80;;;;;;5062939;28;20931;-80
2022/07/27 07:10:06;;;;;;;2.33;1.67;;;28.20;46.90;;;;;;5090615;28;20391;-80
2022/07/27 07:12:38;;;;;;;1.80;1.70;;;28.10;46.80;;;;;;5063753;28;20447;-81
2022/07/27 07:15:13;;;;;;;2.30;2.10;;;28.10;46.80;;;;;;5097007;28;20421;-80
2022/07/27 07:21:30;;;;;;;2.17;2.07;;;28.10;46.80;;;;;;5048113;28;20454;-81
2022/07/27 07:30:54;;;;;;;2.33;1.80;;;28.10;46.90;;;;;;4980133;28;20434;-81
2022/07/27 07:40:20;;;;;;;2.00;1.67;;;28.10;46.90;;;;;;4990010;28;20408;-81
2022/07/27 07:59:47;;;;;;;2.27;1.80;;;28.00;47.40;;;;;;4915603;28;20492;-81
2022/07/27 08:02:25;;;;;;;2.00;1.40;;;28.00;46.90;;;;;;4912746;29;20401;-81
2022/07/27 08:04:55;;;;;;;1.60;1.50;;;28.00;46.90;;;;;;4971518;29;20445;-81
2022/07/27 08:11:46;;;;;;;2.37;1.60;;;28.00;46.90;;;;;;4976746;29;20406;-81
2022/07/27 08:17:59;;;;;;;3.33;1.60;;;27.90;46.80;;;;;;4975999;29;20406;-83
2022/07/27 08:27:41;;;;;;;1.67;1.57;;;27.90;46.70;;;;;;4975922;29;20449;-83
2022/07/27 08:30:18;;;;;;;1.60;1.50;;;27.90;46.70;;;;;;4975236;29;20436;-82
2022/07/27 08:43:18;;;;;;;2.00;1.57;;;27.80;46.60;;;;;;5074500;28;20388;-83
2022/07/27 08:52:17;;;;;;;2.40;2.20;;;27.80;46.70;;;;;;5034104;28;20415;-83
2022/07/27 08:55:12;;;;;;;2.10;1.90;;;27.80;46.70;;;;;;4994720;28;20422;-82
2022/07/27 09:18:23;;;;;;;2.70;2.50;;;27.70;46.60;;;;;;4936537;29;20391;-82
2022/07/27 09:25:03;;;;;;;2.87;2.57;;;27.70;46.60;;;;;;4881660;29;20406;-83
2022/07/27 09:27:55;;;;;;;4.53;2.20;;;27.60;46.50;;;;;;4891804;29;20461;-83
2022/07/27 09:33:53;;;;;;;3.10;2.87;;;27.60;46.50;;;;;;4892303;29;20426;-83
2022/07/27 09:36:29;;;;;;;3.27;2.37;;;27.60;46.50;;;;;;4886691;29;20413;-83
2022/07/27 09:39:33;;;;;;;2.43;2.23;;;27.60;46.50;;;;;;4827137;29;20417;-83
2022/07/27 09:43:04;;;;;;;3.10;2.27;;;27.60;46.50;;;;;;4918935;29;20443;-81
2022/07/27 09:49:06;;;;;;;3.00;2.53;;;27.50;46.40;;;;;;4929727;29;20414;-83
2022/07/27 09:52:17;;;;;;;3.43;2.40;;;27.50;46.50;;;;;;4954775;28;20412;-82
2022/07/27 09:55:14;;;;;;;2.53;2.30;;;27.60;46.50;;;;;;5030603;28;20419;-83
2022/07/27 10:01:57;;;;;;;2.50;2.30;;;27.60;46.40;;;;;;5036240;28;20903;-83
2022/07/27 10:05:22;;;;;;;;;;;;;;;;;;;;;
2022/07/27 10:08:16;;;;;;;4.80;2.20;;;27.60;46.40;;;;;;5032496;28;20482;-82
2022/07/27 10:11:20;;;;;;;;;;;;;;;;;;;;;
2022/07/27 10:14:19;;;;;;;3.20;2.70;;;27.60;46.30;;;;;;5057136;28;20457;-83
2022/07/27 10:17:12;;;;;;;4.67;2.50;;;27.60;46.30;;;;;;5030801;28;20425;-83
2022/07/27 10:23:16;;;;;;;2.93;2.63;;;27.60;46.20;;;;;;5096151;28;20391;-83
2022/07/27 10:33:12;;;;;;;3.07;2.77;;;27.60;46.20;;;;;;5092004;28;20408;-82
2022/07/27 10:35:50;;;;;;;2.70;2.50;;;27.60;46.10;;;;;;5091658;28;20415;-82
2022/07/27 10:38:55;;;;;;;3.27;2.53;;;27.60;46.10;;;;;;5073100;28;20431;-82
2022/07/27 10:41:40;;;;;;;4.33;2.80;;;27.60;46.10;;;;;;5073694;28;20420;-83
2022/07/27 10:48:16;;;;;;;5.00;3.80;;;27.60;46.10;;;;;;5094265;28;20460;-82
2022/07/27 10:55:02;;;;;;;9.90;4.77;;;27.60;46.00;;;;;;5070399;28;20384;-82
2022/07/27 10:57:30;;;;;;;12.10;6.33;;;27.60;46.10;;;;;;5057776;28;20472;-83
2022/07/27 11:00:08;;;;;;;16.83;7.30;;;27.60;46.10;;;;;;5052358;28;20444;-83
2022/07/27 11:02:57;;;;;;;12.80;6.57;;;27.60;45.90;;;;;;5043806;28;20429;-83
2022/07/27 11:05:29;;;;;;;19.17;7.30;;;27.60;45.90;;;;;;5055504;28;20441;-83
2022/07/27 11:08:00;;;;;;;18.50;7.60;;;27.60;45.80;;;;;;5054609;28;20477;-82
2022/07/27 11:10:45;;;;;;;11.00;6.70;;;27.60;45.70;;;;;;5037630;28;20430;-83
2022/07/27 11:20:28;;;;;;;;;;;;;;;;;;;;;
2022/07/27 11:23:20;;;;;;;11.97;6.00;;;27.60;45.60;;;;;;4996003;28;20473;-82
2022/07/27 11:26:03;;;;;;;12.30;5.13;;;27.60;45.40;;;;;;4996133;28;20416;-82
2022/07/27 11:38:56;;;;;;;7.10;4.10;;;27.60;45.10;;;;;;5015311;28;20384;-82
2022/07/27 11:41:29;;;;;;;4.57;3.90;;;27.60;45.10;;;;;;5015453;28;20408;-81
2022/07/27 11:44:03;;;;;;;6.90;4.20;;;27.60;45.20;;;;;;5014796;28;20415;-81
2022/07/27 11:46:39;;;;;;;4.87;3.37;;;27.60;45.20;;;;;;5034312;28;20448;-82
2022/07/27 11:49:32;;;;;;;4.30;3.70;;;27.60;45.20;;;;;;5027190;28;20436;-81
2022/07/27 11:52:05;;;;;;;3.93;2.90;;;27.60;45.00;;;;;;5034881;28;20408;-82
2022/07/27 11:54:39;;;;;;;4.00;3.40;;;27.60;45.00;;;;;;5018323;28;20415;-82
2022/07/27 11:57:21;;;;;;;6.50;3.60;;;27.60;44.90;;;;;;5034178;28;20439;-82
2022/07/27 12:00:12;;;;;;;3.33;3.03;;;27.60;44.90;;;;;;5110235;28;20408;-82
2022/07/27 12:03:29;;;;;;;3.50;2.87;;;27.60;44.90;;;;;;5078356;28;20404;-81
2022/07/27 12:06:02;;;;;;;3.80;3.10;;;27.70;45.60;;;;;;5093489;28;20416;-82
2022/07/27 12:08:32;;;;;;;5.90;3.40;;;27.60;45.00;;;;;;5093674;28;20479;-82
2022/07/27 12:14:49;;;;;;;4.23;3.83;;;27.70;45.10;;;;;;5034316;28;20415;-82
2022/07/27 12:17:25;;;;;;;4.70;3.43;;;27.70;45.20;;;;;;4985822;28;20404;-82
2022/07/27 12:20:23;;;;;;;3.53;2.90;;;27.70;45.20;;;;;;5034720;28;20411;-82
2022/07/27 12:26:32;;;;;;;3.93;2.27;;;27.70;45.00;;;;;;5035348;28;20471;-82
2022/07/27 12:29:21;;;;;;;2.63;2.43;;;27.70;44.90;;;;;;5002012;28;20491;-82
2022/07/27 12:31:56;;;;;;;4.63;2.93;;;27.70;44.80;;;;;;5016473;28;20494;-82
2022/07/27 12:34:22;;;;;;;3.73;2.63;;;27.70;44.70;;;;;;5018691;28;20408;-82
2022/07/27 12:37:08;;;;;;;2.97;2.40;;;27.70;44.80;;;;;;5034581;28;20403;-82
2022/07/27 12:39:38;;;;;;;4.70;2.40;;;27.70;44.70;;;;;;5014727;28;20419;-82
2022/07/27 12:42:30;;;;;;;2.60;2.40;;;27.70;44.50;;;;;;5007269;28;20434;-82
2022/07/27 12:45:16;;;;;;;3.50;2.57;;;27.70;44.50;;;;;;5015942;28;20404;-82
2022/07/27 12:47:49;;;;;;;3.80;2.50;;;27.80;44.50;;;;;;5014458;28;20501;-81
2022/07/27 12:53:56;;;;;;;2.80;2.03;;;27.80;44.70;;;;;;5071374;28;20427;-82
2022/07/27 12:56:28;;;;;;;2.13;1.93;;;27.80;44.70;;;;;;5078043;28;20404;-81
2022/07/27 12:59:08;;;;;;;3.17;2.10;;;27.70;44.50;;;;;;5096254;28;20415;-83
2022/07/27 13:01:51;;;;;;;2.67;2.40;;;27.80;44.60;;;;;;5081320;28;20716;-83
2022/07/27 13:04:47;;;;;;;2.60;2.40;;;27.80;44.50;;;;;;5067099;28;20413;-82
2022/07/27 13:07:48;;;;;;;3.70;2.23;;;27.80;44.40;;;;;;5081128;28;20463;-82
2022/07/27 13:10:23;;;;;;;3.27;2.17;;;27.80;44.40;;;;;;5095808;28;20409;-82
2022/07/27 13:13:02;;;;;;;3.53;1.97;;;27.80;44.50;;;;;;5081116;28;20450;-83
2022/07/27 13:15:52;;;;;;;3.50;2.23;;;27.80;44.70;;;;;;5080833;28;20876;-83
2022/07/27 13:18:30;;;;;;;3.10;2.10;;;27.80;44.50;;;;;;5099104;28;20439;-82
2022/07/27 13:21:12;;;;;;;2.83;2.03;;;27.80;44.50;;;;;;5050693;28;20432;-82
2022/07/27 13:24:07;;;;;;;4.23;1.97;;;27.80;44.20;;;;;;5078816;28;20848;-82
2022/07/27 13:26:36;;;;;;;4.13;2.30;;;27.80;44.10;;;;;;5057441;28;20528;-81
2022/07/27 13:29:07;;;;;;;2.20;2.00;;;27.80;44.20;;;;;;5117988;28;20415;-82
2022/07/27 13:31:41;;;;;;;2.20;1.90;;;27.80;44.40;;;;;;5101744;28;20487;-82
2022/07/27 13:34:22;;;;;;;4.00;2.27;;;27.80;44.40;;;;;;5119776;28;20396;-82
2022/07/27 13:36:54;;;;;;;3.47;2.60;;;27.80;44.40;;;;;;5113139;28;20436;-82
2022/07/27 13:39:23;;;;;;;2.60;2.03;;;27.80;44.30;;;;;;5064379;28;20397;-82
2022/07/27 13:42:01;;;;;;;2.57;2.07;;;27.90;44.10;;;;;;5080620;28;20437;-82
2022/07/27 13:44:37;;;;;;;3.40;2.03;;;27.90;44.10;;;;;;5082234;28;20415;-82
2022/07/27 13:47:31;;;;;;;2.23;1.90;;;27.80;44.20;;;;;;5091154;28;20528;-82
2022/07/27 13:50:27;;;;;;;2.60;2.17;;;27.90;44.20;;;;;;5001106;28;20423;-82
2022/07/27 13:52:54;;;;;;;3.60;2.20;;;27.80;44.00;;;;;;5064742;28;20453;-82
2022/07/27 13:55:30;;;;;;;2.20;1.70;;;27.80;44.00;;;;;;5098750;28;20403;-81
2022/07/27 13:58:19;;;;;;;2.07;1.90;;;27.80;44.00;;;;;;5097730;28;20399;-82
2022/07/27 14:03:50;;;;;;;1.93;1.70;;;27.90;43.90;;;;;;5098630;28;20451;-81
2022/07/27 14:06:42;;;;;;;;;;;;;;;;;;;;;
2022/07/27 14:09:20;;;;;;;1.93;1.80;;;27.80;44.30;;;;;;5078642;28;20437;-80
2022/07/27 14:11:57;;;;;;;2.83;1.70;;;27.80;44.00;;;;;;5065897;28;20401;-81
2022/07/27 14:14:27;;;;;;;2.60;2.10;;;27.80;44.00;;;;;;5078853;28;20405;-82
2022/07/27 14:17:00;;;;;;;2.50;2.13;;;27.80;43.80;;;;;;5096243;28;20451;-81
2022/07/27 14:19:49;;;;;;;2.87;1.70;;;27.80;43.40;;;;;;5047754;28;20428;-82
2022/07/27 14:23:01;;;;;;;2.40;1.60;;;27.90;43.60;;;;;;5071592;28;20420;-82
2022/07/27 14:25:34;;;;;;;3.23;2.27;;;27.90;43.80;;;;;;5098336;28;20418;-82
2022/07/27 14:28:47;;;;;;;2.07;1.87;;;27.80;43.60;;;;;;5048003;28;20472;-82
2022/07/27 14:31:17;;;;;;;1.63;1.50;;;27.80;43.60;;;;;;5080838;28;20440;-82
2022/07/27 14:34:13;;;;;;;2.43;2.00;;;27.80;43.50;;;;;;5064288;28;20423;-82
2022/07/27 14:36:43;;;;;;;2.03;1.80;;;27.80;43.50;;;;;;5056561;28;20425;-82
2022/07/27 14:39:34;;;;;;;2.70;1.77;;;27.80;43.40;;;;;;5074020;28;20416;-81
2022/07/27 14:42:14;;;;;;;3.00;1.97;;;27.80;43.60;;;;;;5097347;28;20515;-82
2022/07/27 14:45:09;;;;;;;3.10;1.97;;;27.80;43.80;;;;;;5097495;28;20405;-82
2022/07/27 14:51:07;;;;;;;2.77;1.67;;;27.80;43.80;;;;;;5036046;28;20438;-82
2022/07/27 14:53:41;;;;;;;4.03;2.23;;;27.80;43.60;;;;;;5035959;28;20495;-82
2022/07/27 14:56:11;;;;;;;2.10;1.90;;;27.90;43.50;;;;;;5019982;28;20419;-81
2022/07/27 14:58:56;;;;;;;2.60;2.10;;;27.90;43.60;;;;;;5036085;28;20427;-82
2022/07/27 15:01:40;;;;;;;2.10;1.73;;;27.90;43.50;;;;;;5036692;28;20498;-81
2022/07/27 15:04:11;;;;;;;3.30;2.00;;;27.90;43.10;;;;;;5012296;28;20498;-82
2022/07/27 15:06:47;;;;;;;5.60;2.17;;;27.80;43.10;;;;;;5035148;28;20455;-81
2022/07/27 15:09:18;;;;;;;3.93;1.80;;;27.80;43.00;;;;;;5019293;28;20490;-81
2022/07/27 15:12:04;;;;;;;2.67;1.80;;;27.80;43.00;;;;;;5022571;28;20419;-82
2022/07/27 15:14:31;;;;;;;2.23;1.97;;;27.90;43.00;;;;;;5035474;28;20395;-82
2022/07/27 15:17:08;;;;;;;2.73;1.63;;;27.80;42.90;;;;;;5018751;28;20430;-81
2022/07/27 15:19:35;;;;;;;3.07;2.20;;;27.80;42.80;;;;;;5033641;28;20435;-81
2022/07/27 15:22:04;;;;;;;2.23;1.77;;;27.80;42.60;;;;;;5065033;28;20420;-81
2022/07/27 15:24:34;;;;;;;2.50;2.10;;;27.80;42.90;;;;;;5096509;28;20416;-81
2022/07/27 15:27:22;;;;;;;4.80;2.10;;;27.80;43.00;;;;;;5059066;28;20478;-81
2022/07/27 15:29:59;;;;;;;2.60;1.70;;;27.80;42.80;;;;;;5063283;28;20763;-81
2022/07/27 15:36:45;;;;;;;1.93;1.63;;;27.80;42.50;;;;;;5055984;28;20722;-81
2022/07/27 15:39:21;;;;;;;2.43;1.63;;;27.80;42.50;;;;;;5039124;28;20449;-81
2022/07/27 15:41:52;;;;;;;1.77;1.67;;;27.80;42.80;;;;;;5038999;28;20414;-81
2022/07/27 15:44:23;;;;;;;2.70;1.83;;;27.80;42.70;;;;;;5055350;28;20386;-82
2022/07/27 15:46:51;;;;;;;2.53;2.10;;;27.80;42.60;;;;;;5036364;28;20466;-82
2022/07/27 15:49:21;;;;;;;2.67;2.47;;;27.80;42.60;;;;;;5052795;28;20437;-81
2022/07/27 15:51:48;;;;;;;4.30;2.43;;;27.80;42.40;;;;;;5020806;28;20427;-81
2022/07/27 15:54:20;;;;;;;2.97;2.33;;;27.80;42.90;;;;;;5020678;28;20435;-82
2022/07/27 15:56:48;;;;;;;3.87;2.33;;;27.80;43.20;;;;;;5035833;28;20422;-82
2022/07/27 15:59:15;;;;;;;4.43;2.20;;;27.80;43.30;;;;;;5020035;28;20467;-82
2022/07/27 16:01:42;;;;;;;4.07;2.33;;;27.80;43.30;;;;;;5036862;28;20414;-82
2022/07/27 16:04:09;;;;;;;3.60;1.97;;;27.80;43.40;;;;;;5020015;28;20413;-81
2022/07/27 16:06:41;;;;;;;2.57;2.37;;;27.90;43.60;;;;;;5019009;28;20438;-81
2022/07/27 16:09:08;;;;;;;2.63;2.10;;;27.90;43.50;;;;;;5036072;28;20411;-81
2022/07/27 16:11:37;;;;;;;2.00;1.80;;;27.90;43.30;;;;;;5036279;28;20446;-80
2022/07/27 16:14:05;;;;;;;2.50;1.73;;;28.00;43.30;;;;;;5053244;28;20411;-80
2022/07/27 16:16:32;;;;;;;2.20;1.80;;;27.90;43.30;;;;;;5053779;28;20403;-80
2022/07/27 16:19:02;;;;;;;3.80;2.13;;;27.90;43.20;;;;;;5072831;28;20479;-82
2022/07/27 16:21:34;;;;;;;2.80;2.20;;;28.00;43.30;;;;;;5076121;28;20480;-81
2022/07/27 16:24:00;;;;;;;4.50;2.60;;;27.90;43.30;;;;;;5093778;28;20408;-81
2022/07/27 16:26:31;;;;;;;3.37;2.53;;;27.90;43.20;;;;;;5093451;28;20482;-80
2022/07/27 16:29:17;;;;;;;2.00;1.80;;;28.00;43.10;;;;;;5093946;28;20401;-80
2022/07/27 16:31:44;;;;;;;2.07;1.80;;;28.00;43.00;;;;;;5076877;28;20425;-80
2022/07/27 16:34:10;;;;;;;2.27;2.07;;;27.90;43.10;;;;;;5062240;28;20412;-82
2022/07/27 16:36:37;;;;;;;2.70;2.20;;;28.00;43.90;;;;;;5078519;28;20411;-81
2022/07/27 16:39:04;;;;;;;2.00;1.80;;;28.00;43.30;;;;;;5061444;28;20411;-81
2022/07/27 16:41:31;;;;;;;2.57;2.37;;;28.00;43.20;;;;;;5098572;28;20400;-79
2022/07/27 16:44:04;;;;;;;3.00;2.30;;;28.00;43.20;;;;;;5064347;28;20412;-80
2022/07/27 16:46:30;;;;;;;3.67;1.93;;;28.00;43.00;;;;;;5097724;28;20504;-81
2022/07/27 16:48:56;;;;;;;2.40;2.20;;;28.00;42.90;;;;;;5081323;28;20416;-81
2022/07/27 16:51:26;;;;;;;2.60;2.40;;;28.00;43.10;;;;;;5081023;28;20401;-81
2022/07/27 16:53:53;;;;;;;2.10;2.00;;;28.00;43.20;;;;;;5063779;28;20435;-80
2022/07/27 16:56:20;;;;;;;2.33;1.87;;;28.00;43.10;;;;;;5062544;28;20417;-82
2022/07/27 16:58:48;;;;;;;2.40;2.20;;;28.00;43.20;;;;;;5096483;28;20826;-80
2022/07/27 17:01:18;;;;;;;2.40;2.13;;;28.00;43.10;;;;;;5096750;28;20396;-80
2022/07/27 17:03:47;;;;;;;2.73;2.00;;;28.00;43.20;;;;;;5095620;28;20413;-80
2022/07/27 17:06:23;;;;;;;2.93;1.77;;;28.00;43.20;;;;;;5078827;28;20515;-80
2022/07/27 17:08:50;;;;;;;2.30;2.10;;;28.00;43.10;;;;;;5079017;28;20415;-80
2022/07/27 17:11:21;;;;;;;2.40;1.80;;;28.00;42.60;;;;;;5096313;28;20436;-80
2022/07/27 17:13:48;;;;;;;2.50;2.30;;;28.00;42.40;;;;;;5062502;28;20923;-81
2022/07/27 17:16:18;;;;;;;2.83;1.93;;;28.00;42.40;;;;;;5096550;28;20416;-80
2022/07/27 17:18:46;;;;;;;5.90;2.57;;;28.00;42.70;;;;;;5079210;28;20417;-81
2022/07/27 17:21:13;;;;;;;1.93;1.73;;;28.00;42.90;;;;;;5079248;28;20857;-81
2022/07/27 17:23:44;;;;;;;2.67;1.90;;;28.00;43.00;;;;;;5096919;28;20401;-80
2022/07/27 17:26:12;;;;;;;3.27;1.90;;;28.00;43.00;;;;;;5062629;28;20448;-80
2022/07/27 17:28:42;;;;;;;2.43;2.03;;;28.00;42.90;;;;;;5079038;28;20488;-80
2022/07/27 17:31:11;;;;;;;2.20;2.00;;;28.00;42.90;;;;;;5063092;28;20412;-81
2022/07/27 17:33:39;;;;;;;2.57;2.20;;;28.00;42.70;;;;;;5062172;28;20447;-80
2022/07/27 17:36:11;;;;;;;2.27;1.90;;;28.00;42.80;;;;;;5096594;28;20472;-81
2022/07/27 17:38:43;;;;;;;2.53;2.10;;;28.00;43.00;;;;;;5078955;28;20416;-83
2022/07/27 17:41:20;;;;;;;2.10;1.90;;;28.00;43.00;;;;;;5045258;28;20424;-82